LRBC/BCM METAR and TAF weather

Enter ICAO airport designator
Station Type Date Time Source
LRBC METAR 2019/05/26 02:00 UTC NOAA

LRBC 260200Z 00000KT CAVOK 14/14 Q1014


Station Type Date Time Source
LRBC Decoded METAR 2019/05/26 02:00 UTC NOAA

Bacau, Romania (LRBC) 46-35N 026-58E 190M
May 25, 2019 - 10:00 PM EDT / 2019.05.26 0200 UTC
Wind: Calm:0
Visibility: greater than 7 mile(s):0
Temperature: 57 F (14 C)
Dew Point: 57 F (14 C)
Relative Humidity: 100%
Pressure (altimeter): 29.94 in. Hg (1014 hPa)
ob: LRBC 260200Z 00000KT CAVOK 14/14 Q1014
cycle: 2

Station Type Date Time Source
LRBC TAF 2010/08/31 20:30 UTC NOAA

TAF LRBC 312030Z 3121/0203 CNL

Example: see airport list